createdAt,value
2018-12-28T00:00:48.513Z,0.00
2018-12-28T00:01:48.505Z,0.00
2018-12-28T00:02:48.511Z,0.00
2018-12-28T00:03:48.539Z,0.00
2018-12-28T00:04:48.572Z,0.00
2018-12-28T00:05:48.532Z,0.00
2018-12-28T00:06:48.534Z,0.00
2018-12-28T00:07:48.529Z,0.00
2018-12-28T00:08:48.554Z,0.00
2018-12-28T00:09:48.567Z,0.00
2018-12-28T00:10:48.583Z,0.00
2018-12-28T00:11:48.631Z,0.00
2018-12-28T00:12:48.630Z,0.00
2018-12-28T00:13:48.572Z,0.00
2018-12-28T00:14:48.610Z,0.00
2018-12-28T00:15:48.610Z,0.00
2018-12-28T00:16:48.723Z,0.00
2018-12-28T00:17:48.666Z,0.00
2018-12-28T00:18:48.590Z,0.00
2018-12-28T00:19:48.591Z,0.00
2018-12-28T00:20:48.659Z,0.00
2018-12-28T00:21:48.654Z,0.00
2018-12-28T00:22:48.611Z,0.00
2018-12-28T00:23:48.650Z,0.00
2018-12-28T00:24:48.625Z,0.00
2018-12-28T00:25:48.655Z,0.00
2018-12-28T00:26:48.822Z,0.00
2018-12-28T00:27:48.691Z,0.00
2018-12-28T00:28:48.656Z,0.00
2018-12-28T00:29:48.656Z,0.00
2018-12-28T00:30:48.655Z,0.00
2018-12-28T00:31:48.714Z,0.00
2018-12-28T00:32:48.673Z,0.00
2018-12-28T00:33:48.690Z,0.00
2018-12-28T00:34:48.672Z,0.00
2018-12-28T00:35:48.684Z,0.00
2018-12-28T00:36:48.707Z,0.00
2018-12-28T00:37:48.706Z,0.00
2018-12-28T00:38:48.727Z,0.00
2018-12-28T00:39:48.696Z,0.00
2018-12-28T00:40:48.702Z,0.00
2018-12-28T00:41:48.709Z,0.00
2018-12-28T00:42:48.708Z,0.00
2018-12-28T00:43:48.744Z,0.00
2018-12-28T00:44:48.730Z,0.00
2018-12-28T00:45:48.727Z,0.00
2018-12-28T00:46:48.751Z,0.00
2018-12-28T00:47:48.753Z,0.00
2018-12-28T00:48:48.769Z,0.00
2018-12-28T00:49:48.752Z,0.00
2018-12-28T00:50:48.766Z,0.00
2018-12-28T00:51:48.764Z,0.00
2018-12-28T00:52:48.771Z,0.00
2018-12-28T00:53:48.821Z,0.00
2018-12-28T00:54:48.800Z,0.00
2018-12-28T00:55:48.772Z,0.00
2018-12-28T00:56:48.786Z,0.00
2018-12-28T00:57:48.804Z,0.00
2018-12-28T00:58:48.799Z,0.00
2018-12-28T00:59:48.819Z,0.00
2018-12-28T01:00:48.798Z,0.00
2018-12-28T01:01:48.958Z,0.00
2018-12-28T01:02:48.815Z,0.00
2018-12-28T01:03:48.821Z,0.00
2018-12-28T01:04:48.877Z,0.00
2018-12-28T01:05:48.829Z,0.00
2018-12-28T01:06:48.840Z,0.00
2018-12-28T01:07:48.853Z,0.00
2018-12-28T01:08:48.850Z,0.00
2018-12-28T01:09:48.908Z,0.00
2018-12-28T01:10:48.893Z,0.00
2018-12-28T01:11:48.856Z,0.00
2018-12-28T01:12:48.866Z,0.00
2018-12-28T01:13:48.880Z,0.00
2018-12-28T01:14:48.884Z,0.00
2018-12-28T01:15:48.888Z,0.00
2018-12-28T01:16:48.911Z,0.00
2018-12-28T01:17:48.894Z,0.00
2018-12-28T01:18:48.904Z,0.00
2018-12-28T01:19:48.902Z,0.00
2018-12-28T01:20:48.895Z,0.00
2018-12-28T01:21:48.965Z,0.00
2018-12-28T01:22:48.913Z,0.00
2018-12-28T01:23:48.915Z,0.00
2018-12-28T01:24:48.937Z,0.00
2018-12-28T01:25:48.929Z,0.00
2018-12-28T01:26:48.944Z,0.00
2018-12-28T01:27:48.972Z,0.00
2018-12-28T01:28:48.944Z,0.00
2018-12-28T01:29:48.953Z,0.00
2018-12-28T01:30:48.968Z,0.00
2018-12-28T01:31:48.950Z,0.00
2018-12-28T01:32:49.003Z,0.00
2018-12-28T01:33:48.962Z,0.00
2018-12-28T01:34:48.969Z,0.00
2018-12-28T01:35:48.973Z,0.00
2018-12-28T01:36:48.990Z,0.00
2018-12-28T01:37:48.980Z,0.00
2018-12-28T01:38:49.015Z,0.00
2018-12-28T01:39:49.005Z,0.00
2018-12-28T01:40:48.995Z,0.00
2018-12-28T01:41:49.050Z,0.00
2018-12-28T01:42:49.016Z,0.00
2018-12-28T01:43:49.033Z,0.00
2018-12-28T01:44:49.016Z,0.00
2018-12-28T01:45:49.069Z,0.00
2018-12-28T01:46:50.311Z,0.00
2018-12-28T01:47:49.043Z,0.00
2018-12-28T01:48:49.045Z,0.00
2018-12-28T01:49:49.091Z,0.00
2018-12-28T01:50:49.049Z,0.00
2018-12-28T01:51:49.130Z,0.00
2018-12-28T01:52:49.067Z,0.00
2018-12-28T01:53:49.068Z,0.00
2018-12-28T01:54:49.083Z,0.00
2018-12-28T01:55:49.112Z,0.00
2018-12-28T01:56:49.160Z,0.00
2018-12-28T01:57:49.100Z,0.00
2018-12-28T01:58:49.158Z,0.00
2018-12-28T01:59:49.112Z,0.00
2018-12-28T02:00:49.100Z,0.00
2018-12-28T02:01:49.132Z,0.00
2018-12-28T02:02:49.164Z,0.00
2018-12-28T02:03:49.120Z,0.00
2018-12-28T02:04:49.137Z,0.00
2018-12-28T02:05:49.135Z,0.00
2018-12-28T02:06:49.142Z,0.00
2018-12-28T02:07:49.135Z,0.00
2018-12-28T02:08:49.167Z,0.00
2018-12-28T02:09:49.180Z,0.00
2018-12-28T02:10:49.157Z,0.00
2018-12-28T02:11:49.169Z,0.00
2018-12-28T02:12:49.173Z,0.00
2018-12-28T02:13:49.224Z,0.00
2018-12-28T02:14:49.182Z,0.00
2018-12-28T02:15:49.185Z,0.00
2018-12-28T02:16:49.206Z,0.00
2018-12-28T02:17:49.196Z,0.00
2018-12-28T02:18:49.266Z,0.00
2018-12-28T02:19:49.204Z,0.00
2018-12-28T02:20:49.213Z,0.00
2018-12-28T02:21:49.214Z,0.00
2018-12-28T02:22:49.218Z,0.00
2018-12-28T02:23:49.221Z,0.00
2018-12-28T02:24:49.279Z,0.00
2018-12-28T02:25:49.239Z,0.00
2018-12-28T02:26:49.228Z,0.00
2018-12-28T02:27:49.246Z,0.00
2018-12-28T02:28:49.246Z,0.00
2018-12-28T02:29:49.247Z,0.00
2018-12-28T02:30:49.266Z,0.00
2018-12-28T02:31:49.274Z,0.00
2018-12-28T02:32:49.272Z,0.00
2018-12-28T02:33:49.269Z,0.00
2018-12-28T02:34:49.315Z,0.00
2018-12-28T02:35:49.283Z,0.00
2018-12-28T02:36:49.287Z,0.00
2018-12-28T02:37:49.286Z,0.00
2018-12-28T02:38:49.318Z,0.00
2018-12-28T02:39:49.322Z,0.00
2018-12-28T02:40:49.387Z,0.00
2018-12-28T02:41:49.374Z,0.00
2018-12-28T02:42:49.349Z,0.00
2018-12-28T02:43:49.311Z,0.00
2018-12-28T02:44:49.359Z,0.00
2018-12-28T02:45:49.376Z,0.00
2018-12-28T02:46:49.348Z,0.00
2018-12-28T02:47:49.338Z,0.00
2018-12-28T02:48:49.352Z,0.00
2018-12-28T02:49:49.355Z,0.00
2018-12-28T02:50:49.362Z,0.00
2018-12-28T02:51:49.383Z,0.00
2018-12-28T02:52:49.367Z,0.00
2018-12-28T02:53:49.368Z,0.00
2018-12-28T02:54:49.383Z,0.00
2018-12-28T02:55:49.371Z,0.00
2018-12-28T02:56:49.431Z,0.00
2018-12-28T02:57:49.394Z,0.00
2018-12-28T02:58:49.401Z,0.00
2018-12-28T02:59:49.409Z,0.00
2018-12-28T03:00:49.420Z,0.00
2018-12-28T03:01:49.417Z,0.00
2018-12-28T03:02:49.433Z,0.00
2018-12-28T03:03:49.417Z,0.00
2018-12-28T03:04:49.429Z,0.00
2018-12-28T03:05:49.430Z,0.00
2018-12-28T03:06:49.435Z,0.00
2018-12-28T03:07:49.496Z,0.00
2018-12-28T03:08:49.454Z,0.00
2018-12-28T03:09:49.458Z,0.00
2018-12-28T03:10:49.470Z,0.00
2018-12-28T03:11:49.460Z,0.00
2018-12-28T03:12:49.463Z,0.00
2018-12-28T03:13:49.488Z,0.00
2018-12-28T03:14:49.478Z,0.00
2018-12-28T03:15:49.489Z,0.00
2018-12-28T03:16:49.526Z,0.00
2018-12-28T03:17:49.493Z,0.00
2018-12-28T03:18:49.541Z,0.00
2018-12-28T03:19:49.506Z,0.00
2018-12-28T03:20:49.508Z,0.00
2018-12-28T03:21:49.519Z,0.00
2018-12-28T03:22:49.510Z,0.00
2018-12-28T03:23:49.523Z,0.00
2018-12-28T03:24:49.555Z,0.00
2018-12-28T03:25:49.535Z,0.00
2018-12-28T03:26:49.530Z,0.00
2018-12-28T03:27:49.535Z,0.00
2018-12-28T03:28:49.548Z,0.00
2018-12-28T03:29:49.599Z,0.00
2018-12-28T03:30:49.562Z,0.00
2018-12-28T03:31:49.557Z,0.00
2018-12-28T03:32:49.582Z,0.00
2018-12-28T03:33:49.562Z,0.00
2018-12-28T03:34:49.568Z,0.00
2018-12-28T03:35:49.607Z,0.00
2018-12-28T03:36:49.595Z,0.00
2018-12-28T03:37:49.592Z,0.00
2018-12-28T03:38:49.606Z,0.00
2018-12-28T03:39:52.564Z,0.00
2018-12-28T03:40:49.624Z,0.00
2018-12-28T03:41:49.639Z,0.00
2018-12-28T03:42:49.631Z,0.00
2018-12-28T03:43:49.629Z,0.00
2018-12-28T03:44:49.647Z,0.00
2018-12-28T03:45:49.633Z,0.00
2018-12-28T03:46:49.627Z,0.00
2018-12-28T03:47:49.636Z,0.00
2018-12-28T03:48:49.647Z,0.00
2018-12-28T03:49:49.718Z,0.00
2018-12-28T03:50:49.668Z,0.00
2018-12-28T03:51:49.655Z,0.00
2018-12-28T03:52:49.668Z,0.00
2018-12-28T03:53:49.669Z,0.00
2018-12-28T03:54:49.691Z,0.00
2018-12-28T03:55:49.710Z,0.00
2018-12-28T03:56:49.696Z,0.00
2018-12-28T03:57:49.687Z,0.00
2018-12-28T03:58:49.706Z,0.00
2018-12-28T03:59:49.725Z,0.00
2018-12-28T04:00:49.734Z,0.00
2018-12-28T04:01:49.726Z,0.00
2018-12-28T04:02:49.725Z,0.00
2018-12-28T04:03:49.720Z,0.00
2018-12-28T04:04:49.730Z,0.00
2018-12-28T04:05:49.758Z,0.00
2018-12-28T04:06:49.768Z,0.00
2018-12-28T04:07:49.736Z,0.00
2018-12-28T04:08:49.749Z,0.00
2018-12-28T04:09:49.764Z,0.00
2018-12-28T04:10:49.758Z,0.00
2018-12-28T04:11:49.794Z,0.00
2018-12-28T04:12:49.781Z,0.00
2018-12-28T04:13:49.776Z,0.00
2018-12-28T04:14:49.780Z,0.00
2018-12-28T04:15:49.797Z,0.00
2018-12-28T04:16:49.828Z,0.00
2018-12-28T04:17:49.812Z,0.00
2018-12-28T04:18:49.793Z,0.00
2018-12-28T04:19:49.806Z,0.00
2018-12-28T04:20:49.819Z,0.00
2018-12-28T04:21:49.816Z,0.00
2018-12-28T04:22:49.864Z,0.00
2018-12-28T04:23:49.826Z,0.00
2018-12-28T04:24:49.840Z,0.00
2018-12-28T04:25:49.834Z,0.00
2018-12-28T04:26:49.858Z,0.00
2018-12-28T04:27:49.845Z,0.00
2018-12-28T04:28:49.894Z,0.00
2018-12-28T04:29:49.865Z,0.00
2018-12-28T04:30:49.905Z,0.00
2018-12-28T04:31:49.875Z,0.00
2018-12-28T04:32:49.965Z,0.00
2018-12-28T04:33:49.941Z,0.00
2018-12-28T04:34:49.890Z,0.00
2018-12-28T04:35:49.975Z,0.00
2018-12-28T04:36:49.918Z,0.00
2018-12-28T04:37:49.902Z,0.00
2018-12-28T04:38:49.922Z,0.00
2018-12-28T04:39:49.932Z,0.00
2018-12-28T04:40:49.919Z,0.00
2018-12-28T04:41:49.915Z,0.00
2018-12-28T04:42:49.923Z,0.00
2018-12-28T04:43:49.937Z,0.00
2018-12-28T04:44:49.955Z,0.00
2018-12-28T04:45:49.955Z,0.00
2018-12-28T04:46:49.936Z,0.00
2018-12-28T04:47:49.965Z,0.00
2018-12-28T04:48:49.951Z,0.00
2018-12-28T04:49:49.980Z,0.00
2018-12-28T04:50:49.999Z,0.00
2018-12-28T04:51:49.967Z,0.00
2018-12-28T04:52:49.971Z,0.00
2018-12-28T04:53:50.015Z,0.00
2018-12-28T04:54:49.989Z,0.00
2018-12-28T04:55:50.033Z,0.00
2018-12-28T04:56:50.010Z,0.00
2018-12-28T04:57:50.010Z,0.00
2018-12-28T04:58:50.004Z,0.00
2018-12-28T04:59:50.010Z,0.00
2018-12-28T05:00:50.022Z,0.00
2018-12-28T05:01:50.064Z,0.00
2018-12-28T05:02:50.033Z,0.00
2018-12-28T05:03:50.039Z,0.00
2018-12-28T05:04:50.041Z,0.00
2018-12-28T05:05:50.049Z,0.00
2018-12-28T05:06:50.050Z,0.00
2018-12-28T05:07:50.072Z,0.00
2018-12-28T05:08:50.067Z,0.00
2018-12-28T05:09:50.069Z,0.00
2018-12-28T05:10:50.070Z,0.00
2018-12-28T05:11:50.078Z,0.00
2018-12-28T05:12:50.106Z,0.00
2018-12-28T05:13:50.114Z,0.00
2018-12-28T05:14:50.106Z,0.00
2018-12-28T05:15:50.116Z,0.00
2018-12-28T05:16:50.117Z,0.00
2018-12-28T05:17:50.132Z,0.00
2018-12-28T05:18:50.118Z,0.00
2018-12-28T05:19:50.134Z,0.00
2018-12-28T05:20:50.123Z,0.00
2018-12-28T05:21:50.138Z,0.00
2018-12-28T05:22:50.155Z,0.00
2018-12-28T05:23:50.202Z,0.00
2018-12-28T05:24:50.153Z,0.00
2018-12-28T05:25:50.148Z,0.00
2018-12-28T05:26:50.153Z,0.00
2018-12-28T05:27:50.163Z,0.00
2018-12-28T05:28:50.154Z,0.00
2018-12-28T05:29:50.230Z,0.00
2018-12-28T05:30:50.178Z,0.00
2018-12-28T05:31:50.184Z,0.00
2018-12-28T05:32:50.203Z,0.00
2018-12-28T05:33:50.196Z,0.00
2018-12-28T05:34:50.185Z,0.00
2018-12-28T05:35:50.261Z,0.00
2018-12-28T05:36:50.204Z,0.00
2018-12-28T05:37:50.318Z,0.00
2018-12-28T05:38:50.215Z,0.00
2018-12-28T05:39:50.364Z,0.00
2018-12-28T05:40:50.288Z,0.00
2018-12-28T05:41:50.223Z,0.00
2018-12-28T05:42:50.253Z,0.00
2018-12-28T05:43:50.245Z,0.00
2018-12-28T05:44:50.279Z,0.00
2018-12-28T05:45:50.314Z,0.00
2018-12-28T05:46:50.301Z,0.00
2018-12-28T05:47:50.256Z,0.00
2018-12-28T05:48:50.263Z,0.00
2018-12-28T05:49:50.278Z,0.00
2018-12-28T05:50:50.289Z,0.00
2018-12-28T05:51:50.345Z,0.00
2018-12-28T05:52:50.311Z,0.00
2018-12-28T05:53:50.286Z,0.00
2018-12-28T05:54:50.398Z,0.00
2018-12-28T05:55:50.299Z,0.00
2018-12-28T05:56:50.320Z,0.00
2018-12-28T05:57:50.502Z,0.00
2018-12-28T05:58:50.338Z,0.00
2018-12-28T05:59:50.346Z,0.00
2018-12-28T06:00:50.338Z,0.00
2018-12-28T06:01:50.349Z,0.00
2018-12-28T06:02:50.376Z,0.00
2018-12-28T06:03:50.384Z,0.00
2018-12-28T06:04:50.350Z,0.00
2018-12-28T06:05:50.354Z,0.00
2018-12-28T06:06:50.372Z,0.00
2018-12-28T06:07:50.362Z,0.00
2018-12-28T06:08:50.396Z,0.00
2018-12-28T06:09:50.540Z,0.00
2018-12-28T06:10:50.382Z,0.00
2018-12-28T06:11:50.382Z,0.00
2018-12-28T06:12:50.386Z,0.00
2018-12-28T06:13:50.419Z,0.00
2018-12-28T06:14:50.390Z,0.00
2018-12-28T06:15:50.394Z,0.00
2018-12-28T06:16:50.408Z,0.00
2018-12-28T06:17:50.416Z,0.00
2018-12-28T06:18:50.430Z,0.00
2018-12-28T06:19:50.430Z,0.00
2018-12-28T06:20:50.428Z,0.00
2018-12-28T06:21:50.437Z,0.00
2018-12-28T06:22:50.447Z,0.00
2018-12-28T06:23:50.462Z,0.00
2018-12-28T06:24:50.459Z,0.00
2018-12-28T06:25:50.516Z,0.00
2018-12-28T06:26:50.457Z,0.00
2018-12-28T06:27:50.462Z,0.00
2018-12-28T06:28:50.527Z,0.00
2018-12-28T06:29:50.547Z,0.00
2018-12-28T06:30:50.482Z,0.00
2018-12-28T06:31:50.521Z,0.00
2018-12-28T06:32:50.493Z,0.00
2018-12-28T06:33:50.494Z,0.00
2018-12-28T06:34:50.512Z,0.00
2018-12-28T06:35:50.506Z,0.00
2018-12-28T06:36:51.691Z,0.00
2018-12-28T06:37:50.600Z,0.00
2018-12-28T06:38:50.534Z,0.00
2018-12-28T06:39:50.656Z,0.00
2018-12-28T06:40:50.539Z,0.00
2018-12-28T06:41:50.544Z,0.00
2018-12-28T06:42:50.551Z,0.00
2018-12-28T06:43:50.551Z,0.00
2018-12-28T06:44:50.559Z,0.00
2018-12-28T06:45:50.653Z,0.00
2018-12-28T06:46:50.620Z,0.00
2018-12-28T06:47:50.566Z,0.00
2018-12-28T06:48:50.572Z,0.00
2018-12-28T06:49:50.578Z,0.00
2018-12-28T06:50:50.588Z,0.00
2018-12-28T06:51:50.631Z,0.00
2018-12-28T06:52:50.584Z,0.00
2018-12-28T06:53:50.644Z,0.00
2018-12-28T06:54:50.605Z,0.00
2018-12-28T06:55:50.605Z,0.00
2018-12-28T06:56:50.610Z,0.00
2018-12-28T06:57:50.621Z,0.00
2018-12-28T06:58:50.621Z,0.00
2018-12-28T06:59:50.645Z,0.00
2018-12-28T07:00:50.676Z,0.00
2018-12-28T07:01:50.707Z,0.00
2018-12-28T07:02:50.632Z,0.00
2018-12-28T07:03:50.649Z,0.00
2018-12-28T07:04:50.645Z,0.00
2018-12-28T07:05:50.662Z,0.00
2018-12-28T07:06:50.685Z,0.00
2018-12-28T07:07:50.667Z,0.00
2018-12-28T07:08:50.663Z,0.00
2018-12-28T07:09:50.676Z,0.00
2018-12-28T07:10:50.727Z,0.00
2018-12-28T07:11:50.689Z,0.00
2018-12-28T07:12:50.686Z,0.00
2018-12-28T07:13:50.704Z,0.00
2018-12-28T07:14:50.702Z,0.00
2018-12-28T07:15:50.707Z,0.00
2018-12-28T07:16:50.756Z,0.00
2018-12-28T07:17:50.776Z,0.00
2018-12-28T07:18:50.721Z,0.00
2018-12-28T07:19:50.725Z,0.00
2018-12-28T07:20:50.737Z,0.00
2018-12-28T07:21:50.752Z,0.00
2018-12-28T07:22:50.766Z,5.63
2018-12-28T07:23:50.750Z,5.63
2018-12-28T07:24:50.760Z,5.63
2018-12-28T07:25:50.763Z,5.63
2018-12-28T07:26:50.757Z,5.63
2018-12-28T07:27:50.793Z,5.63
2018-12-28T07:28:50.781Z,5.63
2018-12-28T07:29:50.780Z,5.63
2018-12-28T07:30:50.796Z,5.63
2018-12-28T07:31:50.783Z,5.63
2018-12-28T07:32:50.829Z,5.63
2018-12-28T07:33:51.118Z,5.63
2018-12-28T07:34:50.844Z,11.25
2018-12-28T07:35:50.815Z,5.63
2018-12-28T07:36:50.810Z,5.63
2018-12-28T07:37:50.817Z,11.25
2018-12-28T07:38:50.830Z,11.25
2018-12-28T07:39:50.837Z,11.25
2018-12-28T07:40:54.941Z,11.25
2018-12-28T07:41:51.664Z,11.25
2018-12-28T07:42:50.838Z,11.25
2018-12-28T07:43:50.862Z,11.25
2018-12-28T07:44:50.878Z,16.88
2018-12-28T07:45:50.886Z,16.88
2018-12-28T07:46:50.863Z,16.88
2018-12-28T07:47:50.899Z,11.25
2018-12-28T07:48:50.883Z,11.25
2018-12-28T07:49:50.900Z,11.25
2018-12-28T07:50:50.920Z,11.25
2018-12-28T07:51:50.907Z,16.88
2018-12-28T07:52:50.906Z,22.50
2018-12-28T07:53:50.902Z,22.50
2018-12-28T07:54:50.920Z,16.88
2018-12-28T07:55:50.919Z,16.88
2018-12-28T07:56:50.948Z,16.88
2018-12-28T07:57:50.914Z,16.88
2018-12-28T07:58:50.935Z,22.50
2018-12-28T07:59:50.947Z,16.88
2018-12-28T08:00:50.943Z,22.50
2018-12-28T08:01:50.985Z,22.50
2018-12-28T08:02:50.952Z,33.75
2018-12-28T08:03:50.955Z,33.75
2018-12-28T08:04:50.964Z,28.13
2018-12-28T08:05:50.974Z,22.50
2018-12-28T08:06:50.963Z,28.13
2018-12-28T08:07:51.048Z,28.13
2018-12-28T08:08:50.983Z,22.50
2018-12-28T08:09:50.981Z,22.50
2018-12-28T08:10:50.990Z,22.50
2018-12-28T08:11:51.008Z,22.50
2018-12-28T08:12:50.991Z,22.50
2018-12-28T08:13:51.041Z,22.50
2018-12-28T08:14:51.057Z,22.50
2018-12-28T08:15:51.027Z,28.13
2018-12-28T08:16:51.023Z,33.75
2018-12-28T08:17:51.050Z,33.75
2018-12-28T08:18:51.040Z,28.13
2018-12-28T08:19:51.033Z,33.75
2018-12-28T08:20:51.063Z,39.38
2018-12-28T08:21:51.059Z,33.75
2018-12-28T08:22:51.071Z,33.75
2018-12-28T08:23:51.049Z,45.00
2018-12-28T08:24:51.060Z,45.00
2018-12-28T08:25:51.075Z,39.38
2018-12-28T08:26:51.079Z,39.38
2018-12-28T08:27:51.084Z,33.75
2018-12-28T08:28:51.100Z,33.75
2018-12-28T08:29:51.090Z,33.75
2018-12-28T08:30:51.126Z,33.75
2018-12-28T08:31:51.105Z,33.75
2018-12-28T08:32:51.167Z,39.38
2018-12-28T08:33:51.132Z,56.25
2018-12-28T08:34:51.165Z,45.00
2018-12-28T08:35:51.115Z,50.63
2018-12-28T08:36:51.136Z,50.63
2018-12-28T08:37:51.186Z,56.25
2018-12-28T08:38:51.160Z,50.63
2018-12-28T08:39:51.143Z,50.63
2018-12-28T08:40:51.140Z,61.88
2018-12-28T08:41:51.155Z,61.88
2018-12-28T08:42:51.674Z,61.88
2018-12-28T08:43:51.164Z,45.00
2018-12-28T08:44:51.218Z,45.00
2018-12-28T08:45:51.170Z,45.00
2018-12-28T08:46:51.192Z,56.25
2018-12-28T08:47:51.189Z,50.63
2018-12-28T08:48:51.198Z,45.00
2018-12-28T08:49:51.193Z,50.63
2018-12-28T08:50:51.249Z,39.38
2018-12-28T08:51:51.248Z,39.38
2018-12-28T08:52:51.214Z,45.00
2018-12-28T08:53:51.383Z,50.63
2018-12-28T08:54:51.225Z,45.00
2018-12-28T08:55:51.233Z,45.00
2018-12-28T08:56:51.274Z,50.63
2018-12-28T08:57:51.237Z,50.63
2018-12-28T08:58:51.315Z,50.63
2018-12-28T08:59:51.250Z,50.63
2018-12-28T09:00:51.530Z,50.63
2018-12-28T09:01:51.283Z,45.00
2018-12-28T09:02:51.318Z,39.38
2018-12-28T09:03:51.269Z,39.38
2018-12-28T09:04:51.268Z,33.75
2018-12-28T09:05:51.300Z,33.75
2018-12-28T09:06:51.286Z,33.75
2018-12-28T09:07:51.288Z,33.75
2018-12-28T09:08:51.319Z,33.75
2018-12-28T09:09:51.319Z,39.38
2018-12-28T09:10:51.311Z,50.63
2018-12-28T09:11:51.304Z,50.63
2018-12-28T09:12:51.373Z,50.63
2018-12-28T09:13:51.344Z,45.00
2018-12-28T09:14:51.379Z,39.38
2018-12-28T09:15:51.357Z,39.38
2018-12-28T09:16:51.349Z,50.63
2018-12-28T09:17:51.368Z,56.25
2018-12-28T09:18:51.532Z,50.63
2018-12-28T09:19:51.360Z,56.25
2018-12-28T09:20:51.374Z,50.63
2018-12-28T09:21:51.380Z,39.38
2018-12-28T09:22:51.385Z,50.63
2018-12-28T09:23:51.386Z,45.00
2018-12-28T09:24:51.429Z,56.25
2018-12-28T09:25:51.426Z,33.75
2018-12-28T09:26:51.420Z,45.00
2018-12-28T09:27:51.406Z,50.63
2018-12-28T09:28:51.417Z,56.25
2018-12-28T09:29:51.426Z,50.63
2018-12-28T09:30:51.446Z,45.00
2018-12-28T09:31:51.412Z,33.75
2018-12-28T09:32:51.425Z,39.38
2018-12-28T09:33:51.428Z,45.00
2018-12-28T09:34:51.424Z,67.50
2018-12-28T09:35:51.461Z,56.25
2018-12-28T09:36:51.472Z,73.13
2018-12-28T09:37:51.458Z,90.00
2018-12-28T09:38:51.453Z,95.63
2018-12-28T09:39:51.454Z,135.00
2018-12-28T09:40:51.492Z,129.38
2018-12-28T09:41:51.514Z,118.13
2018-12-28T09:42:51.486Z,112.50
2018-12-28T09:43:51.481Z,95.63
2018-12-28T09:44:51.482Z,146.25
2018-12-28T09:45:51.506Z,157.50
2018-12-28T09:46:51.494Z,185.63
2018-12-28T09:47:51.562Z,168.75
2018-12-28T09:48:51.494Z,146.25
2018-12-28T09:49:51.510Z,135.00
2018-12-28T09:50:51.522Z,129.38
2018-12-28T09:51:51.538Z,106.88
2018-12-28T09:52:51.541Z,129.38
2018-12-28T09:53:51.559Z,135.00
2018-12-28T09:54:51.544Z,129.38
2018-12-28T09:55:51.538Z,146.25
2018-12-28T09:56:51.555Z,146.25
2018-12-28T09:57:51.595Z,140.63
2018-12-28T09:58:51.567Z,146.25
2018-12-28T09:59:51.581Z,157.50
2018-12-28T10:00:51.590Z,129.38
2018-12-28T10:01:58.328Z,146.25
2018-12-28T10:02:51.598Z,151.88
2018-12-28T10:03:51.634Z,163.13
2018-12-28T10:04:51.589Z,185.63
2018-12-28T10:05:51.613Z,140.63
2018-12-28T10:06:51.610Z,140.63
2018-12-28T10:07:51.631Z,135.00
2018-12-28T10:08:51.631Z,129.38
2018-12-28T10:09:51.650Z,146.25
2018-12-28T10:10:51.631Z,112.50
2018-12-28T10:11:51.622Z,101.25
2018-12-28T10:12:51.652Z,101.25
2018-12-28T10:13:51.661Z,90.00
2018-12-28T10:14:51.697Z,95.63
2018-12-28T10:15:51.660Z,129.38
2018-12-28T10:16:51.654Z,140.63
2018-12-28T10:17:51.666Z,140.63
2018-12-28T10:18:51.674Z,157.50
2018-12-28T10:19:51.692Z,135.00
2018-12-28T10:20:51.713Z,140.63
2018-12-28T10:21:51.686Z,168.75
2018-12-28T10:22:51.684Z,151.88
2018-12-28T10:23:51.713Z,101.25
2018-12-28T10:24:51.705Z,129.38
2018-12-28T10:25:51.801Z,129.38
2018-12-28T10:26:51.711Z,123.75
2018-12-28T10:27:51.720Z,140.63
2018-12-28T10:28:51.734Z,174.38
2018-12-28T10:29:51.752Z,140.63
2018-12-28T10:30:51.732Z,135.00
2018-12-28T10:31:51.777Z,140.63
2018-12-28T10:32:51.751Z,135.00
2018-12-28T10:33:51.769Z,129.38
2018-12-28T10:34:51.757Z,90.00
2018-12-28T10:35:51.769Z,84.38
2018-12-28T10:36:51.789Z,95.63
2018-12-28T10:37:51.786Z,73.13
2018-12-28T10:38:51.776Z,56.25
2018-12-28T10:39:51.800Z,67.50
2018-12-28T10:40:51.839Z,101.25
2018-12-28T10:41:51.872Z,118.13
2018-12-28T10:42:51.821Z,106.88
2018-12-28T10:43:51.807Z,95.63
2018-12-28T10:44:51.899Z,106.88
2018-12-28T10:45:51.828Z,140.63
2018-12-28T10:46:51.828Z,129.38
2018-12-28T10:47:51.847Z,129.38
2018-12-28T10:48:51.845Z,101.25
2018-12-28T10:49:51.841Z,95.63
2018-12-28T10:50:51.859Z,90.00
2018-12-28T10:51:51.904Z,73.13
2018-12-28T10:52:51.881Z,95.63
2018-12-28T10:53:51.876Z,95.63
2018-12-28T10:54:51.882Z,78.75
2018-12-28T10:55:51.873Z,84.38
2018-12-28T10:56:51.876Z,90.00
2018-12-28T10:57:51.910Z,95.63
2018-12-28T10:58:51.914Z,106.88
2018-12-28T10:59:51.952Z,90.00
2018-12-28T11:00:51.916Z,90.00
2018-12-28T11:01:51.912Z,73.13
2018-12-28T11:02:51.929Z,101.25
2018-12-28T11:03:51.976Z,118.13
2018-12-28T11:04:51.935Z,118.13
2018-12-28T11:05:51.962Z,129.38
2018-12-28T11:06:51.993Z,90.00
2018-12-28T11:07:52.051Z,78.75
2018-12-28T11:08:51.951Z,101.25
2018-12-28T11:09:52.000Z,106.88
2018-12-28T11:10:51.981Z,146.25
2018-12-28T11:11:51.983Z,157.50
2018-12-28T11:12:52.003Z,151.88
2018-12-28T11:13:51.988Z,146.25
2018-12-28T11:14:52.012Z,146.25
2018-12-28T11:15:52.013Z,151.88
2018-12-28T11:16:52.043Z,151.88
2018-12-28T11:17:52.008Z,123.75
2018-12-28T11:18:52.024Z,135.00
2018-12-28T11:19:52.047Z,151.88
2018-12-28T11:20:52.112Z,151.88
2018-12-28T11:21:52.035Z,135.00
2018-12-28T11:22:52.089Z,140.63
2018-12-28T11:23:52.055Z,146.25
2018-12-28T11:24:52.058Z,135.00
2018-12-28T11:25:52.059Z,135.00
2018-12-28T11:26:52.138Z,135.00
2018-12-28T11:27:52.090Z,118.13
2018-12-28T11:28:52.339Z,135.00
2018-12-28T11:29:52.087Z,140.63
2018-12-28T11:30:52.073Z,146.25
2018-12-28T11:31:52.468Z,151.88
2018-12-28T11:32:52.687Z,157.50
2018-12-28T11:33:52.095Z,157.50
2018-12-28T11:34:52.093Z,151.88
2018-12-28T11:35:52.108Z,151.88
2018-12-28T11:36:52.127Z,151.88
2018-12-28T11:37:52.142Z,163.13
2018-12-28T11:38:52.123Z,191.25
2018-12-28T11:39:52.117Z,208.13
2018-12-28T11:40:52.166Z,208.13
2018-12-28T11:41:53.257Z,196.88
2018-12-28T11:42:52.134Z,180.00
2018-12-28T11:43:52.157Z,174.38
2018-12-28T11:44:52.159Z,191.25
2018-12-28T11:45:52.172Z,202.50
2018-12-28T11:46:52.185Z,202.50
2018-12-28T11:47:52.173Z,202.50
2018-12-28T11:48:52.395Z,202.50
2018-12-28T11:49:52.185Z,213.75
2018-12-28T11:50:52.500Z,213.75
2018-12-28T11:51:52.202Z,202.50
2018-12-28T11:52:52.237Z,213.75
2018-12-28T11:53:52.211Z,202.50
2018-12-28T11:54:52.241Z,180.00
2018-12-28T11:55:52.221Z,168.75
2018-12-28T11:56:52.437Z,157.50
2018-12-28T11:57:52.239Z,157.50
2018-12-28T11:58:52.236Z,146.25
2018-12-28T11:59:52.231Z,140.63
2018-12-28T12:00:52.734Z,129.38
2018-12-28T12:01:52.244Z,106.88
2018-12-28T12:02:52.374Z,95.63
2018-12-28T12:03:52.272Z,67.50
2018-12-28T12:04:52.261Z,56.25
2018-12-28T12:05:52.379Z,39.38
2018-12-28T12:06:52.727Z,33.75
2018-12-28T12:07:52.772Z,56.25
2018-12-28T12:08:52.318Z,61.88
2018-12-28T12:09:52.452Z,50.63
2018-12-28T12:10:52.360Z,61.88
2018-12-28T12:11:52.362Z,78.75
2018-12-28T12:12:52.312Z,90.00
2018-12-28T12:13:52.601Z,84.38
2018-12-28T12:14:52.339Z,84.38
2018-12-28T12:15:52.540Z,73.13
2018-12-28T12:16:52.399Z,73.13
2018-12-28T12:17:52.890Z,56.25
2018-12-28T12:18:52.371Z,45.00
2018-12-28T12:19:53.140Z,39.38
2018-12-28T12:20:52.366Z,22.50
2018-12-28T12:21:52.356Z,22.50
2018-12-28T12:22:52.406Z,28.13
2018-12-28T12:23:52.387Z,39.38
2018-12-28T12:24:52.378Z,56.25
2018-12-28T12:25:52.403Z,39.38
2018-12-28T12:26:52.408Z,50.63
2018-12-28T12:27:52.397Z,67.50
2018-12-28T12:28:52.414Z,67.50
2018-12-28T12:29:52.406Z,67.50
2018-12-28T12:30:52.443Z,67.50
2018-12-28T12:31:52.448Z,61.88
2018-12-28T12:32:52.473Z,50.63
2018-12-28T12:33:52.462Z,39.38
2018-12-28T12:34:52.458Z,33.75
2018-12-28T12:35:52.500Z,39.38
2018-12-28T12:36:52.455Z,39.38
2018-12-28T12:37:52.455Z,39.38
2018-12-28T12:38:53.201Z,39.38
2018-12-28T12:39:56.939Z,33.75
2018-12-28T12:40:52.461Z,33.75
2018-12-28T12:41:52.481Z,39.38
2018-12-28T12:42:52.496Z,45.00
2018-12-28T12:43:52.738Z,50.63
2018-12-28T12:44:52.581Z,50.63
2018-12-28T12:45:52.572Z,45.00
2018-12-28T12:46:52.517Z,45.00
2018-12-28T12:47:52.533Z,45.00
2018-12-28T12:48:52.594Z,45.00
2018-12-28T12:49:52.759Z,45.00
2018-12-28T12:50:53.012Z,56.25
2018-12-28T12:51:52.531Z,56.25
2018-12-28T12:52:52.536Z,56.25
2018-12-28T12:53:52.532Z,56.25
2018-12-28T12:54:52.664Z,67.50
2018-12-28T12:55:52.672Z,73.13
2018-12-28T12:56:52.765Z,90.00
2018-12-28T12:57:52.575Z,101.25
2018-12-28T12:58:52.575Z,95.63
2018-12-28T12:59:52.773Z,101.25
2018-12-28T13:00:52.578Z,95.63
2018-12-28T13:01:53.206Z,90.00
2018-12-28T13:02:52.607Z,95.63
2018-12-28T13:03:52.589Z,90.00